FNHU/NOV METAR and TAF weather

Enter ICAO airport designator
Station Type Date Time Source
FNHU METAR 2020/09/21 07:00 UTC NOAA

FNHU 210700Z 00000KT 5000 BR NSC 21/15 Q1022


Station Type Date Time Source
FNHU Decoded METAR 2020/09/21 07:00 UTC NOAA

Huambo Nova Lisboa , Angola (FNHU) 12-48S 015-45E 1701M
Sep 21, 2020 - 03:00 AM EDT / 2020.09.21 0700 UTC
Wind: Calm:0
Visibility: 3 mile(s):0
Weather: mist
Temperature: 69 F (21 C)
Dew Point: 59 F (15 C)
Relative Humidity: 68%
Pressure (altimeter): 30.18 in. Hg (1022 hPa)
ob: FNHU 210700Z 00000KT 5000 BR NSC 21/15 Q1022
cycle: 7

Station Type Date Time Source
FNHU TAF 2020/09/20 00:21 UTC NOAA

TAF TAF FNHU 202300Z 2100/2112 VRB03KT 9999 FEW015 PROB30
TEMPO 2103/2107 6000

Example: see airport list